Dane County Regional Truax Field
KMSN : now visible

Airfield :











YOU CAN JOIN US ON...

 
LOGIN :

Register | Disclaimer

   EN    FR    IT 

 









Legend :    VFR   Marginal VFR   IFR   Intensive IFR   Very Intensive IFR
Visi :
Ceiling :
>= 8 km
>= 3000ft
5 to 8 km
1000 to 3000 ft
1500m to 5 km
500 to 1000 ft
800 to 1500m
200 to 500 ft
< 800m
< 200 ft
Symbols :   Thunderstorms  Fog  Heavy snow  Heavy precipitations  Wind > 20 kt






- Airport Elevation : 887 ft
- IATA code : MSN


KMSN - Dane County Regional Truax Field

CURRENT METAR :
  • 241253Z 00000KT 10SM CLR M12/M15 A3008 RMK AO2 SLP203 T11221150

EXPIRED METARs :
  • 241153Z 34003KT 10SM CLR M12/M15 A3005 RMK AO2 SLP194 70001 T11221150 11078 21122 52006
  • 241053Z AUTO 35003KT 10SM CLR M12/M14 A3005 RMK AO2 SLP192 T11171144
  • 240953Z AUTO 34004KT 10SM CLR M11/M14 A3004 RMK AO2 SLP186 T11111139
  • 240853Z AUTO 01004KT 10SM CLR M11/M13 A3004 RMK AO2 SLP184 T11061133 51013

TAF KMSN
Valid from the 24 at 12:00 until the 25 at 12:00 UTC


241120Z 2412/2512 VRB04KT P6SM SKC
FM241700 22008KT P6SM SKC
FM250000 19010G19KT P6SM BKN150
FM250300 20011G20KT P6SM FEW150 WS020/21045KT
FM251000 21008KT P6SM SCT250
KZAU FIR / North America



MET'MAP, your aeronautical weather chart ! - Copyright ORBIFLY December 2007 - Disclaimer

ORBIFLY MET'MAP TEAM :

Programming & Development : Alexandra Zaïnal
Original concept : Baudouin d'Aumeries
Technical & hardware support : Manuel Goepfert
Assistance : Marc-Olivier Méhu




SOURCES & CREDITS :

   NOAA       Earth
Advisory